Time,TemperatureF,DewpointF,PressureIn,WindDirection,WindDirectionDegrees,WindSpeedMPH,WindSpeedGustMPH,Humidity,HourlyPrecipIn,Conditions,Clouds,dailyrainin,SoftwareType,DateUTC
2013-11-25 00:00:00,32.7,14.2,30.00,SE,131,0.0,0.0,46,0.00,,---,0.00,VWS V14.01,2013-11-25 08:00:00,
2013-11-25 00:06:00,32.7,14.7,30.00,SE,131,0.0,0.0,47,0.00,,---,0.00,VWS V14.01,2013-11-25 08:06:00,
2013-11-25 00:12:00,32.9,14.9,30.00,SE,131,0.0,0.0,47,0.00,,---,0.00,VWS V14.01,2013-11-25 08:12:00,
2013-11-25 00:18:00,33.1,15.1,30.00,SE,131,0.0,0.0,47,0.00,,---,0.00,VWS V14.01,2013-11-25 08:18:00,
2013-11-25 00:24:00,33.3,15.2,30.00,SE,131,0.0,0.0,47,0.00,,---,0.00,VWS V14.01,2013-11-25 08:24:00,
2013-11-25 00:30:00,33.1,15.1,30.00,SE,131,0.0,0.0,47,0.00,,---,0.00,VWS V14.01,2013-11-25 08:30:00,
2013-11-25 00:36:00,32.9,14.9,30.00,SE,131,0.0,0.0,47,0.00,,---,0.00,VWS V14.01,2013-11-25 08:36:00,
2013-11-25 00:42:00,32.7,14.7,30.00,SE,131,0.0,0.0,47,0.00,,---,0.00,VWS V14.01,2013-11-25 08:42:00,
2013-11-25 00:48:00,32.7,14.7,30.00,SE,131,0.0,0.0,47,0.00,,---,0.00,VWS V14.01,2013-11-25 08:48:00,
2013-11-25 00:54:00,32.7,14.7,30.00,SE,131,0.0,0.0,47,0.00,,---,0.00,VWS V14.01,2013-11-25 08:54:00,
2013-11-25 01:00:00,32.7,14.7,30.00,SE,131,0.0,0.0,47,0.00,,---,0.00,VWS V14.01,2013-11-25 09:00:00,
2013-11-25 01:06:00,32.7,14.7,30.00,SE,131,0.0,0.0,47,0.00,,---,0.00,VWS V14.01,2013-11-25 09:06:00,
2013-11-25 01:12:00,32.7,14.7,30.03,SE,131,0.0,0.0,47,0.00,,---,0.00,VWS V14.01,2013-11-25 09:12:00,
2013-11-25 01:18:00,32.7,14.7,30.03,SE,131,0.0,0.0,47,0.00,,---,0.00,VWS V14.01,2013-11-25 09:18:00,
2013-11-25 01:24:00,32.7,14.7,30.03,SE,131,0.0,0.0,47,0.00,,---,0.00,VWS V14.01,2013-11-25 09:24:00,
2013-11-25 01:30:00,32.5,14.6,30.03,SE,131,0.0,0.0,47,0.00,,---,0.00,VWS V14.01,2013-11-25 09:30:00,
2013-11-25 01:36:00,32.5,14.6,30.03,SE,131,0.0,0.0,47,0.00,,---,0.00,VWS V14.01,2013-11-25 09:36:00,
2013-11-25 01:42:00,32.4,14.4,30.03,SE,131,0.0,0.0,47,0.00,,---,0.00,VWS V14.01,2013-11-25 09:42:00,
2013-11-25 01:48:00,32.4,14.4,30.03,SE,131,0.0,0.0,47,0.00,,---,0.00,VWS V14.01,2013-11-25 09:48:00,
2013-11-25 01:54:00,32.5,14.6,30.03,SE,131,0.0,0.0,47,0.00,,---,0.00,VWS V14.01,2013-11-25 09:54:00,
2013-11-25 02:00:00,32.5,14.6,30.03,SE,131,0.0,0.0,47,0.00,,---,0.00,VWS V14.01,2013-11-25 10:00:00,
2013-11-25 02:06:00,32.4,14.4,30.03,SE,131,0.0,0.0,47,0.00,,---,0.00,VWS V14.01,2013-11-25 10:06:00,
2013-11-25 02:12:00,32.2,14.2,30.00,SE,131,0.0,0.0,47,0.00,,---,0.00,VWS V14.01,2013-11-25 10:12:00,
2013-11-25 02:18:00,32.2,14.2,30.00,SE,131,0.0,0.0,47,0.00,,---,0.00,VWS V14.01,2013-11-25 10:18:00,
2013-11-25 02:24:00,32.2,14.2,30.00,SE,131,0.0,0.0,47,0.00,,---,0.00,VWS V14.01,2013-11-25 10:24:00,
2013-11-25 02:30:00,32.4,14.4,30.03,SE,131,0.0,0.0,47,0.00,,---,0.00,VWS V14.01,2013-11-25 10:30:00,
2013-11-25 02:36:00,32.4,14.4,30.03,SE,131,0.0,0.0,47,0.00,,---,0.00,VWS V14.01,2013-11-25 10:36:00,
2013-11-25 02:42:00,32.4,14.4,30.03,SE,131,0.0,0.0,47,0.00,,---,0.00,VWS V14.01,2013-11-25 10:42:00,
2013-11-25 02:48:00,32.2,14.2,30.03,SE,131,0.0,0.0,47,0.00,,---,0.00,VWS V14.01,2013-11-25 10:48:00,
2013-11-25 02:54:00,32.4,14.4,30.03,SE,131,0.0,0.0,47,0.00,,---,0.00,VWS V14.01,2013-11-25 10:54:00,
2013-11-25 03:00:00,32.4,14.4,30.03,SE,131,0.0,0.0,47,0.00,,---,0.00,VWS V14.01,2013-11-25 11:00:00,
2013-11-25 03:06:00,32.4,14.4,30.03,SE,131,0.0,0.0,47,0.00,,---,0.00,VWS V14.01,2013-11-25 11:06:00,
2013-11-25 03:12:00,32.4,14.4,30.03,SE,131,0.0,0.0,47,0.00,,---,0.00,VWS V14.01,2013-11-25 11:12:00,
2013-11-25 03:18:00,32.2,14.2,30.03,SE,131,0.0,0.0,47,0.00,,---,0.00,VWS V14.01,2013-11-25 11:18:00,
2013-11-25 03:24:00,32.0,14.1,30.03,SE,131,0.0,0.0,47,0.00,,---,0.00,VWS V14.01,2013-11-25 11:24:00,
2013-11-25 03:30:00,31.6,13.7,30.03,SE,131,0.0,0.0,47,0.00,,---,0.00,VWS V14.01,2013-11-25 11:30:00,
2013-11-25 03:36:00,31.6,13.7,30.03,SE,131,0.0,0.0,47,0.00,,---,0.00,VWS V14.01,2013-11-25 11:36:00,
2013-11-25 03:42:00,31.8,13.9,30.03,SE,131,0.0,0.0,47,0.00,,---,0.00,VWS V14.01,2013-11-25 11:42:00,
2013-11-25 03:48:00,31.6,13.7,30.03,SE,131,0.0,0.0,47,0.00,,---,0.00,VWS V14.01,2013-11-25 11:48:00,
2013-11-25 03:54:00,31.5,13.6,30.03,SE,131,0.0,0.0,47,0.00,,---,0.00,VWS V14.01,2013-11-25 11:54:00,
2013-11-25 04:00:00,31.5,13.6,30.03,SE,131,0.0,0.0,47,0.00,,---,0.00,VWS V14.01,2013-11-25 12:00:00,
2013-11-25 04:06:00,31.3,13.4,30.03,SE,131,0.0,0.0,47,0.00,,---,0.00,VWS V14.01,2013-11-25 12:06:00,
2013-11-25 04:12:00,31.3,13.4,30.03,SE,131,0.0,0.0,47,0.00,,---,0.00,VWS V14.01,2013-11-25 12:12:00,
2013-11-25 04:18:00,31.1,13.2,30.03,SE,131,0.0,0.0,47,0.00,,---,0.00,VWS V14.01,2013-11-25 12:18:00,
2013-11-25 04:24:00,31.1,13.2,30.03,SE,131,0.0,0.0,47,0.00,,---,0.00,VWS V14.01,2013-11-25 12:24:00,
2013-11-25 04:30:00,31.1,13.2,30.03,SE,131,0.0,0.0,47,0.00,,---,0.00,VWS V14.01,2013-11-25 12:30:00,
2013-11-25 04:36:00,31.1,13.2,30.03,SE,131,0.0,0.0,47,0.00,,---,0.00,VWS V14.01,2013-11-25 12:36:00,
2013-11-25 04:42:00,31.1,13.2,30.03,SE,131,0.0,0.0,47,0.00,,---,0.00,VWS V14.01,2013-11-25 12:42:00,
2013-11-25 04:48:00,30.9,13.1,30.03,SE,131,0.0,0.0,47,0.00,,---,0.00,VWS V14.01,2013-11-25 12:48:00,
2013-11-25 04:54:00,30.7,12.9,30.03,SE,131,0.0,0.0,47,0.00,,---,0.00,VWS V14.01,2013-11-25 12:54:00,
2013-11-25 05:00:00,30.7,12.9,30.03,SE,131,0.0,0.0,47,0.00,,---,0.00,VWS V14.01,2013-11-25 13:00:00,
2013-11-25 05:06:00,30.7,12.9,30.03,SE,131,0.0,0.0,47,0.00,,---,0.00,VWS V14.01,2013-11-25 13:06:00,
2013-11-25 05:12:00,30.7,12.9,30.03,SE,131,0.0,0.0,47,0.00,,---,0.00,VWS V14.01,2013-11-25 13:12:00,
2013-11-25 05:18:00,30.7,12.9,30.03,SE,131,0.0,0.0,47,0.00,,---,0.00,VWS V14.01,2013-11-25 13:18:00,
2013-11-25 05:24:00,30.6,12.7,30.03,SE,131,0.0,0.0,47,0.00,,---,0.00,VWS V14.01,2013-11-25 13:24:00,
2013-11-25 05:30:00,30.6,12.7,30.03,SE,131,0.0,0.0,47,0.00,,---,0.00,VWS V14.01,2013-11-25 13:30:00,
2013-11-25 05:36:00,30.6,12.7,30.03,SE,131,0.0,0.0,47,0.00,,---,0.00,VWS V14.01,2013-11-25 13:36:00,
2013-11-25 05:42:00,30.6,12.7,30.03,SE,131,0.0,0.0,47,0.00,,---,0.00,VWS V14.01,2013-11-25 13:42:00,
2013-11-25 05:48:00,30.6,12.7,30.03,SE,131,0.0,0.0,47,0.00,,---,0.00,VWS V14.01,2013-11-25 13:48:00,
2013-11-25 05:54:00,30.7,12.9,30.03,SE,131,0.0,0.0,47,0.00,,---,0.00,VWS V14.01,2013-11-25 13:54:00,
2013-11-25 06:00:00,30.6,12.7,30.03,SE,131,0.0,0.0,47,0.00,,---,0.00,VWS V14.01,2013-11-25 14:00:00,
2013-11-25 06:06:00,30.4,12.1,30.03,SE,131,0.0,0.0,46,0.00,,---,0.00,VWS V14.01,2013-11-25 14:06:00,
2013-11-25 06:12:00,30.4,12.6,30.03,SE,131,0.0,0.0,47,0.00,,---,0.00,VWS V14.01,2013-11-25 14:12:00,
2013-11-25 06:18:00,30.2,12.4,30.03,SE,131,0.0,0.0,47,0.00,,---,0.00,VWS V14.01,2013-11-25 14:18:00,
2013-11-25 06:24:00,30.4,12.6,30.03,SE,131,0.0,0.0,47,0.00,,---,0.00,VWS V14.01,2013-11-25 14:24:00,
2013-11-25 06:30:00,30.2,12.4,30.03,SE,131,0.0,0.0,47,0.00,,---,0.00,VWS V14.01,2013-11-25 14:30:00,
2013-11-25 06:36:00,30.0,11.8,30.03,SE,131,0.0,0.0,46,0.00,,---,0.00,VWS V14.01,2013-11-25 14:36:00,
2013-11-25 06:42:00,30.0,12.2,30.03,SE,131,0.0,0.0,47,0.00,,---,0.00,VWS V14.01,2013-11-25 14:42:00,
2013-11-25 06:48:00,29.8,11.6,30.03,SE,131,0.0,0.0,46,0.00,,---,0.00,VWS V14.01,2013-11-25 14:48:00,
2013-11-25 06:54:00,29.8,11.6,30.03,SE,131,0.0,0.0,46,0.00,,---,0.00,VWS V14.01,2013-11-25 14:54:00,
2013-11-25 07:00:00,30.0,12.2,30.03,SE,131,0.0,0.0,47,0.00,,---,0.00,VWS V14.01,2013-11-25 15:00:00,
2013-11-25 07:06:00,30.0,11.8,30.03,SE,131,0.0,0.0,46,0.00,,---,0.00,VWS V14.01,2013-11-25 15:06:00,
2013-11-25 07:12:00,29.8,11.6,30.03,SE,131,0.0,0.0,46,0.00,,---,0.00,VWS V14.01,2013-11-25 15:12:00,
2013-11-25 07:18:00,29.8,11.6,30.03,SE,131,0.0,0.0,46,0.00,,---,0.00,VWS V14.01,2013-11-25 15:18:00,
2013-11-25 07:24:00,29.7,11.4,30.03,SE,131,0.0,0.0,46,0.00,,---,0.00,VWS V14.01,2013-11-25 15:24:00,
2013-11-25 07:30:00,29.7,11.4,30.03,SE,131,0.0,0.0,46,0.00,,---,0.00,VWS V14.01,2013-11-25 15:30:00,
2013-11-25 07:36:00,29.7,11.4,30.03,SE,131,0.0,0.0,46,0.00,,---,0.00,VWS V14.01,2013-11-25 15:36:00,
2013-11-25 07:42:00,29.7,11.4,30.03,SE,131,0.0,0.0,46,0.00,,---,0.00,VWS V14.01,2013-11-25 15:42:00,
2013-11-25 07:48:00,29.7,11.4,30.03,SE,131,0.0,0.0,46,0.00,,---,0.00,VWS V14.01,2013-11-25 15:48:00,
2013-11-25 07:54:00,29.7,11.4,30.03,SE,131,0.0,0.0,46,0.00,,---,0.00,VWS V14.01,2013-11-25 15:54:00,
2013-11-25 08:00:00,29.7,11.4,30.03,SE,131,0.0,0.0,46,0.00,,---,0.00,VWS V14.01,2013-11-25 16:00:00,
2013-11-25 08:06:00,29.8,11.6,30.03,SE,131,0.0,0.0,46,0.00,,---,0.00,VWS V14.01,2013-11-25 16:06:00,
2013-11-25 08:12:00,30.0,11.8,30.03,SE,131,0.0,0.0,46,0.00,,---,0.00,VWS V14.01,2013-11-25 16:12:00,
2013-11-25 08:18:00,29.8,11.6,30.03,SE,131,0.0,0.0,46,0.00,,---,0.00,VWS V14.01,2013-11-25 16:18:00,
2013-11-25 08:24:00,30.0,12.2,30.03,SE,131,0.0,0.0,47,0.00,,---,0.00,VWS V14.01,2013-11-25 16:24:00,
2013-11-25 08:30:00,30.4,13.1,30.03,SE,131,0.0,0.0,48,0.00,,---,0.00,VWS V14.01,2013-11-25 16:30:00,
2013-11-25 08:36:00,30.6,12.7,30.03,SE,131,0.0,0.0,47,0.00,,---,0.00,VWS V14.01,2013-11-25 16:36:00,
2013-11-25 08:42:00,30.7,12.9,30.03,SE,131,0.0,0.0,47,0.00,,---,0.00,VWS V14.01,2013-11-25 16:42:00,
2013-11-25 08:48:00,30.9,13.1,30.03,SE,131,0.0,0.0,47,0.00,,---,0.00,VWS V14.01,2013-11-25 16:48:00,
2013-11-25 08:54:00,31.1,13.7,30.03,SE,131,0.0,0.0,48,0.00,,---,0.00,VWS V14.01,2013-11-25 16:54:00,
2013-11-25 09:00:00,31.1,13.7,30.03,SE,131,0.0,0.0,48,0.00,,---,0.00,VWS V14.01,2013-11-25 17:00:00,
2013-11-25 09:06:00,31.3,13.9,30.03,SE,131,0.0,0.0,48,0.00,,---,0.00,VWS V14.01,2013-11-25 17:06:00,
2013-11-25 09:12:00,31.3,13.9,30.06,SE,131,0.0,0.0,48,0.00,,---,0.00,VWS V14.01,2013-11-25 17:12:00,
2013-11-25 09:18:00,31.5,14.1,30.06,SE,131,0.0,0.0,48,0.00,,---,0.00,VWS V14.01,2013-11-25 17:18:00,
2013-11-25 09:24:00,31.5,14.1,30.06,SE,131,0.0,0.0,48,0.00,,---,0.00,VWS V14.01,2013-11-25 17:24:00,
2013-11-25 09:30:00,31.6,14.2,30.06,SE,131,0.0,0.0,48,0.00,,---,0.00,VWS V14.01,2013-11-25 17:30:00,
2013-11-25 09:36:00,31.8,14.4,30.06,SE,131,0.0,0.0,48,0.00,,---,0.00,VWS V14.01,2013-11-25 17:36:00,
2013-11-25 09:42:00,32.0,14.6,30.06,SE,131,0.0,0.0,48,0.00,,---,0.00,VWS V14.01,2013-11-25 17:42:00,
2013-11-25 09:48:00,32.2,15.2,30.06,SE,131,0.0,0.0,49,0.00,,---,0.00,VWS V14.01,2013-11-25 17:48:00,
2013-11-25 09:54:00,32.4,15.4,30.06,SE,131,0.0,0.0,49,0.00,,---,0.00,VWS V14.01,2013-11-25 17:54:00,
2013-11-25 10:00:00,32.5,15.5,30.06,SE,131,0.0,0.0,49,0.00,,---,0.00,VWS V14.01,2013-11-25 18:00:00,
2013-11-25 10:06:00,32.7,16.1,30.06,SE,131,0.0,0.0,50,0.00,,---,0.00,VWS V14.01,2013-11-25 18:06:00,
2013-11-25 10:12:00,32.9,16.3,30.06,SE,131,0.0,0.0,50,0.00,,---,0.00,VWS V14.01,2013-11-25 18:12:00,
2013-11-25 10:18:00,33.1,16.9,30.06,SE,131,0.0,0.0,51,0.00,,---,0.00,VWS V14.01,2013-11-25 18:18:00,
2013-11-25 10:24:00,33.3,17.1,30.06,SE,131,0.0,0.0,51,0.00,,---,0.00,VWS V14.01,2013-11-25 18:24:00,
2013-11-25 10:30:00,33.6,17.9,30.06,SE,131,0.0,0.0,52,0.00,,---,0.00,VWS V14.01,2013-11-25 18:30:00,
2013-11-25 10:36:00,34.2,18.4,30.06,SE,131,0.0,0.0,52,0.00,,---,0.00,VWS V14.01,2013-11-25 18:36:00,
2013-11-25 10:42:00,34.9,19.9,30.06,SE,131,0.0,0.0,54,0.00,,---,0.00,VWS V14.01,2013-11-25 18:42:00,
2013-11-25 10:48:00,35.4,20.4,30.06,SE,131,0.0,0.0,54,0.00,,---,0.00,VWS V14.01,2013-11-25 18:48:00,
2013-11-25 10:54:00,35.8,20.8,30.06,SE,131,0.0,0.0,54,0.00,,---,0.00,VWS V14.01,2013-11-25 18:54:00,
2013-11-25 11:00:00,36.1,21.5,30.06,SE,131,0.0,0.0,55,0.00,,---,0.00,VWS V14.01,2013-11-25 19:00:00,
2013-11-25 11:06:00,36.5,21.9,30.06,SE,131,0.0,0.0,55,0.00,,---,0.00,VWS V14.01,2013-11-25 19:06:00,
2013-11-25 11:12:00,37.0,23.2,30.06,SE,131,0.0,0.0,57,0.00,,---,0.00,VWS V14.01,2013-11-25 19:12:00,
2013-11-25 11:18:00,37.4,23.6,30.06,SE,131,0.0,0.0,57,0.00,,---,0.00,VWS V14.01,2013-11-25 19:18:00,
2013-11-25 11:24:00,37.9,24.1,30.06,SE,131,0.0,0.0,57,0.00,,---,0.00,VWS V14.01,2013-11-25 19:24:00,
2013-11-25 11:30:00,38.3,24.8,30.03,SE,131,0.0,0.0,58,0.00,,---,0.00,VWS V14.01,2013-11-25 19:30:00,
2013-11-25 11:36:00,38.7,25.6,30.03,SE,131,0.0,0.0,59,0.00,,---,0.00,VWS V14.01,2013-11-25 19:36:00,
2013-11-25 11:42:00,39.0,26.3,30.03,SE,131,0.0,0.0,60,0.00,,---,0.00,VWS V14.01,2013-11-25 19:42:00,
2013-11-25 11:48:00,39.4,26.7,30.03,SE,131,0.0,0.0,60,0.00,,---,0.00,VWS V14.01,2013-11-25 19:48:00,
2013-11-25 11:54:00,39.9,25.5,30.03,SE,131,0.0,0.0,56,0.00,,---,0.00,VWS V14.01,2013-11-25 19:54:00,
2013-11-25 12:00:00,40.5,21.3,30.03,SE,131,0.0,0.0,46,0.00,,---,0.00,VWS V14.01,2013-11-25 20:00:00,
2013-11-25 12:06:00,40.6,19.9,30.03,SE,131,0.0,0.0,43,0.00,,---,0.00,VWS V14.01,2013-11-25 20:06:00,
2013-11-25 12:12:00,41.2,18.7,30.03,SE,131,0.0,0.0,40,0.00,,---,0.00,VWS V14.01,2013-11-25 20:12:00,
2013-11-25 12:18:00,41.5,18.4,30.03,SE,131,0.0,0.0,39,0.00,,---,0.00,VWS V14.01,2013-11-25 20:18:00,
2013-11-25 12:24:00,42.1,17.1,30.03,SE,131,0.0,0.0,36,0.00,,---,0.00,VWS V14.01,2013-11-25 20:24:00,
2013-11-25 12:30:00,42.6,17.5,30.03,SE,131,0.0,0.0,36,0.00,,---,0.00,VWS V14.01,2013-11-25 20:30:00,
2013-11-25 12:36:00,43.0,17.9,30.03,SE,131,0.0,0.0,36,0.00,,---,0.00,VWS V14.01,2013-11-25 20:36:00,
2013-11-25 12:42:00,43.3,15.5,30.03,SE,131,0.0,0.0,32,0.00,,---,0.00,VWS V14.01,2013-11-25 20:42:00,
2013-11-25 12:48:00,43.7,15.8,30.03,SE,131,0.0,0.0,32,0.00,,---,0.00,VWS V14.01,2013-11-25 20:48:00,
2013-11-25 12:54:00,44.1,15.4,30.03,SE,131,0.0,0.0,31,0.00,,---,0.00,VWS V14.01,2013-11-25 20:54:00,
2013-11-25 13:00:00,44.4,15.7,30.03,SE,131,0.0,0.0,31,0.00,,---,0.00,VWS V14.01,2013-11-25 21:00:00,
2013-11-25 13:06:00,44.8,15.3,30.03,SE,131,0.0,0.0,30,0.00,,---,0.00,VWS V14.01,2013-11-25 21:06:00,
2013-11-25 13:12:00,45.0,16.2,30.03,SE,131,0.0,0.0,31,0.00,,---,0.00,VWS V14.01,2013-11-25 21:12:00,
2013-11-25 13:18:00,45.3,15.7,30.03,SE,131,0.0,0.0,30,0.00,,---,0.00,VWS V14.01,2013-11-25 21:18:00,
2013-11-25 13:24:00,45.5,16.6,30.03,SE,131,0.0,0.0,31,0.00,,---,0.00,VWS V14.01,2013-11-25 21:24:00,
2013-11-25 13:30:00,45.7,16.8,30.03,SE,131,0.0,0.0,31,0.00,,---,0.00,VWS V14.01,2013-11-25 21:30:00,
2013-11-25 13:36:00,45.9,17.0,30.03,SE,131,0.0,0.0,31,0.00,,---,0.00,VWS V14.01,2013-11-25 21:36:00,
2013-11-25 13:42:00,46.2,16.5,30.03,SE,131,0.0,0.0,30,0.00,,---,0.00,VWS V14.01,2013-11-25 21:42:00,
2013-11-25 13:48:00,46.2,16.5,30.03,SE,131,0.0,0.0,30,0.00,,---,0.00,VWS V14.01,2013-11-25 21:48:00,
2013-11-25 13:54:00,46.4,15.9,30.03,SE,131,0.0,0.0,29,0.00,,---,0.00,VWS V14.01,2013-11-25 21:54:00,
2013-11-25 14:00:00,46.6,16.0,30.03,SE,131,0.0,0.0,29,0.00,,---,0.00,VWS V14.01,2013-11-25 22:00:00,
2013-11-25 14:06:00,46.6,16.0,30.03,SE,131,0.0,0.0,29,0.00,,---,0.00,VWS V14.01,2013-11-25 22:06:00,
2013-11-25 14:12:00,46.4,15.9,30.03,SE,131,0.0,0.0,29,0.00,,---,0.00,VWS V14.01,2013-11-25 22:12:00,
2013-11-25 14:18:00,46.6,16.0,30.03,SE,131,0.0,0.0,29,0.00,,---,0.00,VWS V14.01,2013-11-25 22:18:00,
2013-11-25 14:24:00,46.6,16.0,30.03,SE,131,0.0,0.0,29,0.00,,---,0.00,VWS V14.01,2013-11-25 22:24:00,
2013-11-25 14:30:00,46.2,16.5,30.03,SE,131,0.0,0.0,30,0.00,,---,0.00,VWS V14.01,2013-11-25 22:30:00,
2013-11-25 14:36:00,46.0,17.1,30.03,SE,131,0.0,0.0,31,0.00,,---,0.00,VWS V14.01,2013-11-25 22:36:00,
2013-11-25 14:42:00,45.7,17.5,30.03,SE,131,0.0,0.0,32,0.00,,---,0.00,VWS V14.01,2013-11-25 22:42:00,
2013-11-25 14:48:00,45.5,19.5,30.03,SE,131,0.0,0.0,35,0.00,,---,0.00,VWS V14.01,2013-11-25 22:48:00,
2013-11-25 14:54:00,45.3,20.6,30.03,SE,131,0.0,0.0,37,0.00,,---,0.00,VWS V14.01,2013-11-25 22:54:00,
2013-11-25 15:00:00,45.3,21.2,30.03,SE,131,0.0,0.0,38,0.00,,---,0.00,VWS V14.01,2013-11-25 23:00:00,
2013-11-25 15:06:00,45.3,21.2,30.03,SE,131,0.0,0.0,38,0.00,,---,0.00,VWS V14.01,2013-11-25 23:06:00,
2013-11-25 15:12:00,45.1,21.1,30.03,SE,131,0.0,0.0,38,0.00,,---,0.00,VWS V14.01,2013-11-25 23:12:00,
2013-11-25 15:18:00,44.8,21.4,30.03,SE,131,0.0,0.0,39,0.00,,---,0.00,VWS V14.01,2013-11-25 23:18:00,
2013-11-25 15:24:00,44.6,21.2,30.03,SE,131,0.0,0.0,39,0.00,,---,0.00,VWS V14.01,2013-11-25 23:24:00,
2013-11-25 15:30:00,44.2,21.5,30.03,SE,131,0.0,0.0,40,0.00,,---,0.00,VWS V14.01,2013-11-25 23:30:00,
2013-11-25 15:36:00,44.1,21.9,30.03,SE,131,0.0,0.0,41,0.00,,---,0.00,VWS V14.01,2013-11-25 23:36:00,
2013-11-25 15:42:00,43.7,21.6,30.03,SE,131,0.0,0.0,41,0.00,,---,0.00,VWS V14.01,2013-11-25 23:42:00,
2013-11-25 15:48:00,43.7,22.7,30.03,SE,131,0.0,0.0,43,0.00,,---,0.00,VWS V14.01,2013-11-25 23:48:00,
2013-11-25 15:54:00,43.5,23.1,30.03,SE,131,0.0,0.0,44,0.00,,---,0.00,VWS V14.01,2013-11-25 23:54:00,
2013-11-25 16:00:00,43.2,23.3,30.03,SE,131,0.0,0.0,45,0.00,,---,0.00,VWS V14.01,2013-11-26 00:00:00,
2013-11-25 16:06:00,42.8,23.0,30.03,SE,131,0.0,0.0,45,0.00,,---,0.00,VWS V14.01,2013-11-26 00:06:00,
2013-11-25 16:12:00,42.4,23.6,30.03,SE,131,0.0,0.0,47,0.00,,---,0.00,VWS V14.01,2013-11-26 00:12:00,
2013-11-25 16:18:00,42.3,24.5,30.03,SE,131,0.0,0.0,49,0.00,,---,0.00,VWS V14.01,2013-11-26 00:18:00,
2013-11-25 16:24:00,42.3,24.5,30.03,SE,131,0.0,0.0,49,0.00,,---,0.00,VWS V14.01,2013-11-26 00:24:00,
2013-11-25 16:30:00,41.9,23.7,30.03,SE,131,0.0,0.0,48,0.00,,---,0.00,VWS V14.01,2013-11-26 00:30:00,
2013-11-25 16:36:00,41.5,23.3,30.03,SE,131,0.0,0.0,48,0.00,,---,0.00,VWS V14.01,2013-11-26 00:36:00,
2013-11-25 16:42:00,41.2,23.0,30.03,SE,131,0.0,0.0,48,0.00,,---,0.00,VWS V14.01,2013-11-26 00:42:00,
2013-11-25 16:48:00,40.8,23.1,30.03,SE,131,0.0,0.0,49,0.00,,---,0.00,VWS V14.01,2013-11-26 00:48:00,
2013-11-25 16:54:00,40.6,23.0,30.03,SE,131,0.0,0.0,49,0.00,,---,0.00,VWS V14.01,2013-11-26 00:54:00,
2013-11-25 17:00:00,40.6,23.0,30.03,SE,131,0.0,0.0,49,0.00,,---,0.00,VWS V14.01,2013-11-26 01:00:00,
2013-11-25 17:06:00,40.3,22.7,30.03,SE,131,0.0,0.0,49,0.00,,---,0.00,VWS V14.01,2013-11-26 01:06:00,
2013-11-25 17:12:00,40.3,22.7,30.03,SE,131,0.0,0.0,49,0.00,,---,0.00,VWS V14.01,2013-11-26 01:12:00,
2013-11-25 17:18:00,40.1,22.5,30.03,SE,131,0.0,0.0,49,0.00,,---,0.00,VWS V14.01,2013-11-26 01:18:00,
2013-11-25 17:24:00,39.7,22.2,30.03,SE,131,0.0,0.0,49,0.00,,---,0.00,VWS V14.01,2013-11-26 01:24:00,
2013-11-25 17:30:00,39.4,21.8,30.03,SE,131,0.0,0.0,49,0.00,,---,0.00,VWS V14.01,2013-11-26 01:30:00,
2013-11-25 17:36:00,39.2,21.2,30.03,SE,131,0.0,0.0,48,0.00,,---,0.00,VWS V14.01,2013-11-26 01:36:00,
2013-11-25 17:42:00,39.0,21.0,30.03,SE,131,0.0,0.0,48,0.00,,---,0.00,VWS V14.01,2013-11-26 01:42:00,
2013-11-25 17:48:00,38.8,20.8,30.03,SE,131,0.0,0.0,48,0.00,,---,0.00,VWS V14.01,2013-11-26 01:48:00,
2013-11-25 17:54:00,38.8,20.8,30.03,SE,131,0.0,0.0,48,0.00,,---,0.00,VWS V14.01,2013-11-26 01:54:00,
2013-11-25 18:00:00,38.7,20.7,30.03,SE,131,0.0,0.0,48,0.00,,---,0.00,VWS V14.01,2013-11-26 02:00:00,
2013-11-25 18:06:00,38.5,20.5,30.03,SE,131,0.0,0.0,48,0.00,,---,0.00,VWS V14.01,2013-11-26 02:06:00,
2013-11-25 18:12:00,38.5,21.0,30.03,SE,131,0.0,0.0,49,0.00,,---,0.00,VWS V14.01,2013-11-26 02:12:00,
2013-11-25 18:18:00,38.1,20.2,30.03,SE,131,0.0,0.0,48,0.00,,---,0.00,VWS V14.01,2013-11-26 02:18:00,
2013-11-25 18:24:00,37.9,19.0,30.03,SE,131,0.0,0.0,46,0.00,,---,0.00,VWS V14.01,2013-11-26 02:24:00,
2013-11-25 18:30:00,37.8,18.9,30.03,SE,131,0.0,0.0,46,0.00,,---,0.00,VWS V14.01,2013-11-26 02:30:00,
2013-11-25 18:36:00,37.6,18.7,30.03,SE,131,0.0,0.0,46,0.00,,---,0.00,VWS V14.01,2013-11-26 02:36:00,
2013-11-25 18:42:00,37.6,18.7,30.03,SE,131,0.0,0.0,46,0.00,,---,0.00,VWS V14.01,2013-11-26 02:42:00,
2013-11-25 18:48:00,37.4,18.0,30.03,SE,131,0.0,0.0,45,0.00,,---,0.00,VWS V14.01,2013-11-26 02:48:00,
2013-11-25 18:54:00,37.2,18.4,30.03,SE,131,0.0,0.0,46,0.00,,---,0.00,VWS V14.01,2013-11-26 02:54:00,
2013-11-25 19:00:00,37.0,18.2,30.03,SE,131,0.0,0.0,46,0.00,,---,0.00,VWS V14.01,2013-11-26 03:00:00,
2013-11-25 19:06:00,37.0,18.2,30.03,SE,131,0.0,0.0,46,0.00,,---,0.00,VWS V14.01,2013-11-26 03:06:00,
2013-11-25 19:12:00,36.9,18.0,30.03,SE,131,0.0,0.0,46,0.00,,---,0.00,VWS V14.01,2013-11-26 03:12:00,
2013-11-25 19:18:00,36.9,17.5,30.03,SE,131,0.0,0.0,45,0.00,,---,0.00,VWS V14.01,2013-11-26 03:18:00,
2013-11-25 19:24:00,36.7,17.4,30.03,SE,131,0.0,0.0,45,0.00,,---,0.00,VWS V14.01,2013-11-26 03:24:00,
2013-11-25 19:30:00,36.5,17.2,30.03,SE,131,0.0,0.0,45,0.00,,---,0.00,VWS V14.01,2013-11-26 03:30:00,
2013-11-25 19:36:00,36.5,17.2,30.03,SE,131,0.0,0.0,45,0.00,,---,0.00,VWS V14.01,2013-11-26 03:36:00,
2013-11-25 19:42:00,36.3,17.0,30.03,SE,131,0.0,0.0,45,0.00,,---,0.00,VWS V14.01,2013-11-26 03:42:00,
2013-11-25 19:48:00,36.3,17.0,30.03,SE,131,0.0,0.0,45,0.00,,---,0.00,VWS V14.01,2013-11-26 03:48:00,
2013-11-25 19:54:00,36.3,17.0,30.03,SE,131,0.0,0.0,45,0.00,,---,0.00,VWS V14.01,2013-11-26 03:54:00,
2013-11-25 20:00:00,36.1,16.9,30.03,SE,131,0.0,0.0,45,0.00,,---,0.00,VWS V14.01,2013-11-26 04:00:00,
2013-11-25 20:06:00,36.0,16.7,30.03,SE,131,0.0,0.0,45,0.00,,---,0.00,VWS V14.01,2013-11-26 04:06:00,
2013-11-25 20:12:00,35.8,16.5,30.03,SE,131,0.0,0.0,45,0.00,,---,0.00,VWS V14.01,2013-11-26 04:12:00,
2013-11-25 20:18:00,35.8,16.5,30.03,SE,131,0.0,0.0,45,0.00,,---,0.00,VWS V14.01,2013-11-26 04:18:00,
2013-11-25 20:24:00,35.8,16.5,30.03,SE,131,0.0,0.0,45,0.00,,---,0.00,VWS V14.01,2013-11-26 04:24:00,
2013-11-25 20:30:00,35.8,16.5,30.03,SE,131,0.0,0.0,45,0.00,,---,0.00,VWS V14.01,2013-11-26 04:30:00,
2013-11-25 20:36:00,35.6,16.4,30.03,SE,131,0.0,0.0,45,0.00,,---,0.00,VWS V14.01,2013-11-26 04:36:00,
2013-11-25 20:42:00,35.6,16.4,30.00,SE,131,0.0,0.0,45,0.00,,---,0.00,VWS V14.01,2013-11-26 04:42:00,
2013-11-25 20:48:00,35.6,16.4,30.00,SE,131,0.0,0.0,45,0.00,,---,0.00,VWS V14.01,2013-11-26 04:48:00,
2013-11-25 20:54:00,35.4,16.2,30.00,SE,131,0.0,0.0,45,0.00,,---,0.00,VWS V14.01,2013-11-26 04:54:00,
2013-11-25 21:00:00,35.4,16.2,30.00,SE,131,0.0,0.0,45,0.00,,---,0.00,VWS V14.01,2013-11-26 05:00:00,
2013-11-25 21:02:00,35.4,16.2,30.00,SE,131,0.0,0.0,45,0.00,,---,0.00,VWS V14.01,2013-11-26 05:02:00,
2013-11-25 21:04:00,35.4,16.7,30.00,SE,131,0.0,0.0,46,0.00,,---,0.00,VWS V14.01,2013-11-26 05:04:00,
2013-11-25 21:06:00,35.4,16.2,30.00,SE,131,0.0,0.0,45,0.00,,---,0.00,VWS V14.01,2013-11-26 05:06:00,
2013-11-25 21:08:00,35.4,16.2,30.00,SE,131,0.0,0.0,45,0.00,,---,0.00,VWS V14.01,2013-11-26 05:08:00,
2013-11-25 21:14:00,35.2,16.0,30.00,SE,131,0.0,0.0,45,0.00,,---,0.00,VWS V14.01,2013-11-26 05:14:00,
2013-11-25 21:20:00,35.2,16.5,30.00,SE,131,0.0,0.0,46,0.00,,---,0.00,VWS V14.01,2013-11-26 05:20:00,
2013-11-25 21:26:00,35.1,15.9,30.00,SE,131,0.0,0.0,45,0.00,,---,0.00,VWS V14.01,2013-11-26 05:26:00,
2013-11-25 21:30:00,34.9,15.7,30.00,SE,131,0.0,0.0,45,0.00,,---,0.00,VWS V14.01,2013-11-26 05:30:00,
2013-11-25 21:36:00,34.9,15.7,30.00,SE,131,0.0,0.0,45,0.00,,---,0.00,VWS V14.01,2013-11-26 05:36:00,
2013-11-25 21:42:00,34.9,15.7,30.00,SE,131,0.0,0.0,45,0.00,,---,0.00,VWS V14.01,2013-11-26 05:42:00,
2013-11-25 21:48:00,34.5,15.4,30.00,SE,131,0.0,0.0,45,0.00,,---,0.00,VWS V14.01,2013-11-26 05:48:00,
2013-11-25 21:54:00,34.5,15.4,30.00,SE,131,0.0,0.0,45,0.00,,---,0.00,VWS V14.01,2013-11-26 05:54:00,
2013-11-25 22:00:00,34.5,15.4,30.00,SE,131,0.0,0.0,45,0.00,,---,0.00,VWS V14.01,2013-11-26 06:00:00,
2013-11-25 22:06:00,34.5,15.4,30.00,SE,131,0.0,0.0,45,0.00,,---,0.00,VWS V14.01,2013-11-26 06:06:00,
2013-11-25 22:12:00,34.5,15.4,30.03,SE,131,0.0,0.0,45,0.00,,---,0.00,VWS V14.01,2013-11-26 06:12:00,
2013-11-25 22:18:00,34.3,15.2,30.03,SE,131,0.0,0.0,45,0.00,,---,0.00,VWS V14.01,2013-11-26 06:18:00,
2013-11-25 22:24:00,34.3,15.2,30.03,SE,131,0.0,0.0,45,0.00,,---,0.00,VWS V14.01,2013-11-26 06:24:00,
2013-11-25 22:30:00,34.2,15.1,30.03,SE,131,0.0,0.0,45,0.00,,---,0.00,VWS V14.01,2013-11-26 06:30:00,
2013-11-25 22:36:00,34.0,14.9,30.03,SE,131,0.0,0.0,45,0.00,,---,0.00,VWS V14.01,2013-11-26 06:36:00,
2013-11-25 22:42:00,33.8,14.7,30.03,SE,131,0.0,0.0,45,0.00,,---,0.00,VWS V14.01,2013-11-26 06:42:00,
2013-11-25 22:48:00,33.8,14.7,30.03,SE,131,0.0,0.0,45,0.00,,---,0.00,VWS V14.01,2013-11-26 06:48:00,
2013-11-25 22:54:00,33.8,14.7,30.03,SE,131,0.0,0.0,45,0.00,,---,0.00,VWS V14.01,2013-11-26 06:54:00,
2013-11-25 23:00:00,33.6,14.6,30.03,SE,131,0.0,0.0,45,0.00,,---,0.00,VWS V14.01,2013-11-26 07:00:00,
2013-11-25 23:06:00,33.6,14.6,30.03,SE,131,0.0,0.0,45,0.00,,---,0.00,VWS V14.01,2013-11-26 07:06:00,
2013-11-25 23:12:00,33.3,14.2,30.03,SE,131,0.0,0.0,45,0.00,,---,0.00,VWS V14.01,2013-11-26 07:12:00,
2013-11-25 23:18:00,33.1,14.1,30.03,SE,131,0.0,0.0,45,0.00,,---,0.00,VWS V14.01,2013-11-26 07:18:00,
2013-11-25 23:24:00,33.1,14.1,30.03,SE,131,0.0,0.0,45,0.00,,---,0.00,VWS V14.01,2013-11-26 07:24:00,
2013-11-25 23:30:00,33.3,14.2,30.03,SE,131,0.0,0.0,45,0.00,,---,0.00,VWS V14.01,2013-11-26 07:30:00,
2013-11-25 23:36:00,33.3,14.2,30.03,SE,131,0.0,0.0,45,0.00,,---,0.00,VWS V14.01,2013-11-26 07:36:00,
2013-11-25 23:42:00,33.3,14.2,30.03,SE,131,0.0,0.0,45,0.00,,---,0.00,VWS V14.01,2013-11-26 07:42:00,
2013-11-25 23:48:00,33.3,14.2,30.03,SE,131,0.0,0.0,45,0.00,,---,0.00,VWS V14.01,2013-11-26 07:48:00,
2013-11-25 23:54:00,33.3,14.2,30.03,SE,131,0.0,0.0,45,0.00,,---,0.00,VWS V14.01,2013-11-26 07:54:00,